Time;durP1;ratioP1;P1;durP2;ratioP2;P2;SDS_P1;SDS_P2;PMS_P1;PMS_P2;Temp;Humidity;BMP_temperature;BMP_pressure;BME280_temperature;BME280_humidity;BME280_pressure;Samples;Min_cycle;Max_cycle;Signal;HPM_P1;HPM_P2
2023/07/19 00:00:11;;;;;;;14.67;9.17;;;;;;;17.35;69.68;100777.91;4920586;29;20451;-68
2023/07/19 00:02:43;;;;;;;11.70;9.30;;;;;;;17.32;69.71;100780.31;4924808;29;20428;-66
2023/07/19 00:05:12;;;;;;;11.93;8.93;;;;;;;17.19;70.29;100777.88;4924603;29;20532;-66
2023/07/19 00:11:41;;;;;;;11.93;8.97;;;;;;;17.35;70.24;100766.13;4920662;29;20451;-66
2023/07/19 00:14:10;;;;;;;12.93;8.67;;;;;;;17.52;69.07;100772.44;4919046;29;20433;-67
2023/07/19 00:16:41;;;;;;;15.83;10.20;;;;;;;17.18;70.08;100770.78;4920754;29;20424;-66
2023/07/19 00:19:10;;;;;;;11.90;8.70;;;;;;;17.19;70.84;100756.00;4919111;29;20447;-66
2023/07/19 00:22:10;;;;;;;11.00;8.33;;;;;;;17.09;71.05;100755.88;4921774;29;20444;-67
2023/07/19 00:24:39;;;;;;;13.27;9.87;;;;;;;17.19;71.02;100758.75;4921289;29;20430;-68
2023/07/19 00:27:08;;;;;;;12.80;10.20;;;;;;;17.19;71.26;100756.00;4919167;29;20469;-67
2023/07/19 00:29:37;;;;;;;12.60;9.17;;;;;;;17.32;70.56;100750.22;4906522;29;20930;-67
2023/07/19 00:32:09;;;;;;;12.63;10.70;;;;;;;17.08;70.92;100760.50;4921147;29;20501;-67
2023/07/19 00:34:40;;;;;;;10.63;9.53;;;;;;;17.39;70.91;100756.34;4918321;29;20779;-65
2023/07/19 00:37:09;;;;;;;12.33;9.70;;;;;;;17.88;69.14;100748.31;4927579;29;20497;-67
2023/07/19 00:39:39;;;;;;;11.00;8.90;;;;;;;17.70;68.72;100758.50;4926305;29;20481;-67
2023/07/19 00:42:10;;;;;;;12.77;9.27;;;;;;;17.28;69.59;100751.81;4921545;29;20445;-67
2023/07/19 00:44:39;;;;;;;16.10;9.30;;;;;;;17.47;70.14;100745.00;4914369;29;20404;-67
2023/07/19 00:47:09;;;;;;;12.73;9.90;;;;;;;17.33;70.93;100755.44;4917561;29;20412;-67
2023/07/19 00:49:40;;;;;;;15.73;11.07;;;;;;;17.17;71.73;100744.50;4919230;29;20439;-67
2023/07/19 00:52:09;;;;;;;10.50;9.00;;;;;;;17.39;71.76;100739.94;4916918;29;20807;-67
2023/07/19 00:54:39;;;;;;;10.53;8.50;;;;;;;17.34;71.56;100737.09;4922306;29;20911;-66
2023/07/19 00:57:09;;;;;;;10.23;8.60;;;;;;;17.29;71.89;100726.91;4921162;29;20399;-67
2023/07/19 00:59:41;;;;;;;12.10;8.87;;;;;;;17.24;71.92;100724.09;4931369;29;20512;-67
2023/07/19 01:02:13;;;;;;;12.43;9.43;;;;;;;17.35;72.37;100730.56;4923256;29;20488;-68
2023/07/19 01:04:44;;;;;;;12.10;8.97;;;;;;;17.37;71.83;100728.44;4925784;29;20506;-68
2023/07/19 01:07:13;;;;;;;10.93;9.30;;;;;;;17.10;73.22;100732.91;4922713;29;20531;-68
2023/07/19 01:09:43;;;;;;;13.87;9.83;;;;;;;17.22;73.26;100728.19;4925628;29;20453;-67
2023/07/19 01:12:14;;;;;;;14.20;9.33;;;;;;;17.35;73.21;100739.59;4912876;29;20440;-68
2023/07/19 01:14:44;;;;;;;11.07;7.70;;;;;;;17.23;72.36;100718.91;4923935;29;20442;-67
2023/07/19 01:17:15;;;;;;;13.23;7.47;;;;;;;17.03;73.13;100735.00;4917113;29;20452;-67
2023/07/19 01:19:45;;;;;;;10.37;8.07;;;;;;;17.26;72.54;100723.88;4908240;29;20841;-66
2023/07/19 01:22:16;;;;;;;11.50;8.50;;;;;;;17.27;72.05;100720.06;4932929;29;20457;-67
2023/07/19 01:24:47;;;;;;;9.27;7.53;;;;;;;17.13;72.93;100718.75;4918842;29;20922;-67
2023/07/19 01:27:16;;;;;;;10.97;8.63;;;;;;;17.11;72.86;100716.25;4918811;29;20524;-68
2023/07/19 01:29:51;;;;;;;10.00;8.23;;;;;;;17.17;73.04;100720.72;4919141;29;20936;-67
2023/07/19 01:32:21;;;;;;;13.63;8.80;;;;;;;17.26;72.10;100721.13;4909458;29;20823;-68
2023/07/19 01:34:50;;;;;;;8.53;7.17;;;;;;;17.19;72.65;100717.72;4922140;29;20404;-67
2023/07/19 01:37:19;;;;;;;9.73;7.87;;;;;;;17.05;72.40;100710.94;4903210;29;20445;-67
2023/07/19 01:39:51;;;;;;;9.77;7.20;;;;;;;16.85;72.95;100704.06;4917476;29;20447;-67
2023/07/19 01:42:20;;;;;;;8.10;6.63;;;;;;;16.76;73.35;100696.53;4921302;29;20907;-67
2023/07/19 01:44:49;;;;;;;7.80;6.47;;;;;;;16.47;74.04;100712.09;4923654;29;20441;-67
2023/07/19 01:47:18;;;;;;;8.33;7.17;;;;;;;16.40;75.09;100706.81;4922817;29;20935;-67
2023/07/19 01:49:47;;;;;;;9.07;7.53;;;;;;;16.52;75.56;100712.19;4912411;29;20529;-68
2023/07/19 01:52:17;;;;;;;11.23;6.37;;;;;;;16.76;75.00;100708.28;4921349;29;20415;-67
2023/07/19 01:54:49;;;;;;;10.63;7.13;;;;;;;17.38;72.49;100709.00;4922808;29;20467;-67
2023/07/19 01:57:18;;;;;;;8.40;6.00;;;;;;;17.34;71.68;100705.13;4918801;29;20408;-67
2023/07/19 01:59:54;;;;;;;8.30;6.30;;;;;;;17.25;71.57;100695.69;4901936;29;20473;-67
2023/07/19 02:02:24;;;;;;;10.90;6.73;;;;;;;17.50;70.60;100695.22;4923617;29;20455;-67
2023/07/19 02:04:54;;;;;;;8.63;6.60;;;;;;;17.65;70.37;100695.47;4905165;29;20446;-67
2023/07/19 02:07:23;;;;;;;10.43;5.90;;;;;;;17.83;69.36;100690.75;4917268;29;20434;-67
2023/07/19 02:09:53;;;;;;;8.87;6.00;;;;;;;17.65;69.63;100694.66;4918857;29;20438;-66
2023/07/19 02:12:23;;;;;;;7.27;5.77;;;;;;;17.73;69.20;100695.03;4928252;29;20436;-67
2023/07/19 02:14:52;;;;;;;11.53;5.50;;;;;;;17.61;69.51;100690.75;4920982;29;20434;-67
2023/07/19 02:17:22;;;;;;;7.33;5.93;;;;;;;17.58;69.07;100678.38;4922516;29;20444;-67
2023/07/19 02:19:51;;;;;;;8.13;5.43;;;;;;;17.68;68.72;100673.06;4900794;29;20902;-67
2023/07/19 02:22:21;;;;;;;10.93;5.40;;;;;;;17.60;68.14;100676.25;4916232;29;20934;-67
2023/07/19 02:24:50;;;;;;;7.87;5.47;;;;;;;17.59;68.71;100669.13;4916793;29;20430;-68
2023/07/19 02:27:21;;;;;;;10.17;6.23;;;;;;;17.54;68.63;100676.41;4919949;29;20592;-67
2023/07/19 02:29:50;;;;;;;5.80;5.20;;;;;;;17.52;69.25;100673.09;4922270;29;20415;-68
2023/07/19 02:32:20;;;;;;;8.37;5.70;;;;;;;17.41;68.93;100677.59;4930797;29;20445;-67
2023/07/19 02:34:49;;;;;;;7.20;5.20;;;;;;;17.27;69.46;100671.66;4920133;29;20987;-67
2023/07/19 02:37:19;;;;;;;6.53;5.33;;;;;;;17.85;68.89;100667.53;4916043;29;20453;-67
2023/07/19 02:39:48;;;;;;;5.37;4.77;;;;;;;17.97;67.92;100668.22;4918271;29;21043;-66
2023/07/19 02:42:17;;;;;;;8.83;5.60;;;;;;;17.97;67.84;100670.94;4917918;29;20409;-68
2023/07/19 02:44:48;;;;;;;7.60;5.30;;;;;;;17.98;67.68;100658.09;4917817;29;20452;-67
2023/07/19 02:47:17;;;;;;;11.30;4.73;;;;;;;17.76;68.63;100653.47;4916061;29;20781;-67
2023/07/19 02:49:46;;;;;;;6.13;4.07;;;;;;;17.64;69.12;100644.56;4922169;29;20408;-68
2023/07/19 02:52:15;;;;;;;8.70;5.97;;;;;;;17.75;69.45;100640.88;4923555;29;20439;-67
2023/07/19 02:54:44;;;;;;;11.20;6.37;;;;;;;17.84;68.97;100643.97;4918884;29;20447;-67
2023/07/19 02:57:13;;;;;;;7.43;5.47;;;;;;;17.88;69.06;100647.03;4918617;29;20451;-67
2023/07/19 02:59:42;;;;;;;8.00;5.43;;;;;;;17.87;68.72;100648.09;4918357;29;20453;-66
2023/07/19 03:02:13;;;;;;;6.20;5.60;;;;;;;17.64;68.88;100644.56;4924345;29;20446;-67
2023/07/19 03:04:43;;;;;;;7.50;5.20;;;;;;;17.51;69.29;100644.91;4918652;29;20445;-67
2023/07/19 03:07:12;;;;;;;8.27;4.97;;;;;;;17.57;69.51;100649.34;4919643;29;20441;-67
2023/07/19 03:09:41;;;;;;;6.43;4.27;;;;;;;17.63;68.74;100653.84;4920146;29;20438;-67
2023/07/19 03:12:10;;;;;;;7.10;5.63;;;;;;;17.87;68.04;100656.31;4908503;29;20433;-67
2023/07/19 03:14:40;;;;;;;8.43;5.50;;;;;;;17.86;68.41;100658.25;4918619;29;20453;-67
2023/07/19 03:17:09;;;;;;;9.17;6.10;;;;;;;18.01;68.91;100660.34;4919260;29;20477;-67
2023/07/19 03:19:40;;;;;;;6.97;5.50;;;;;;;17.92;68.61;100650.91;4899293;29;20413;-66
2023/07/19 03:22:09;;;;;;;6.47;5.10;;;;;;;17.83;68.92;100657.91;4907968;29;20480;-67
2023/07/19 03:24:39;;;;;;;7.70;5.67;;;;;;;17.85;69.12;100661.22;4921560;29;20547;-68
2023/07/19 03:27:08;;;;;;;7.60;5.50;;;;;;;17.86;68.89;100658.25;4915791;29;20444;-67
2023/07/19 03:29:38;;;;;;;9.13;5.13;;;;;;;17.72;69.34;100657.78;4917581;29;20426;-67
2023/07/19 03:32:09;;;;;;;5.30;4.80;;;;;;;17.84;69.20;100654.09;4903584;29;20412;-67
2023/07/19 03:34:40;;;;;;;6.20;5.17;;;;;;;18.30;67.91;100658.19;4902919;29;20431;-67
2023/07/19 03:37:09;;;;;;;7.47;4.67;;;;;;;18.26;67.27;100657.84;4903367;29;20452;-67
2023/07/19 03:39:38;;;;;;;8.63;4.90;;;;;;;18.13;67.26;100652.78;4910747;29;20427;-66
2023/07/19 03:42:09;;;;;;;10.23;4.87;;;;;;;17.96;67.97;100652.88;4916139;29;20469;-66
2023/07/19 03:44:38;;;;;;;8.93;6.00;;;;;;;18.03;67.59;100653.50;4913734;29;20765;-67
2023/07/19 03:47:08;;;;;;;6.40;4.63;;;;;;;18.16;67.29;100646.78;4909917;29;20782;-66
2023/07/19 03:49:40;;;;;;;11.67;5.17;;;;;;;18.15;67.29;100643.22;4902109;29;20467;-67
2023/07/19 03:52:21;;;;;;;6.80;5.10;;;;;;;18.51;65.96;100644.41;4903397;29;20475;-67
2023/07/19 03:55:22;;;;;;;7.57;4.27;;;;;;;19.20;64.11;100658.13;4913269;29;20951;-66
2023/07/19 03:57:51;;;;;;;8.40;6.27;;;;;;;19.61;61.45;100652.88;4913893;29;20449;-66
2023/07/19 04:00:21;;;;;;;7.50;4.73;;;;;;;20.71;58.31;100643.28;4900799;29;20879;-68
2023/07/19 04:02:50;;;;;;;6.47;4.33;;;;;;;21.72;55.47;100648.59;4903261;29;20441;-67
2023/07/19 04:05:20;;;;;;;7.27;4.17;;;;;;;22.62;51.87;100646.44;4914187;29;20978;-67
2023/07/19 04:07:50;;;;;;;7.50;4.03;;;;;;;22.12;52.10;100644.03;4923479;29;20802;-68
2023/07/19 04:10:19;;;;;;;5.63;4.10;;;;;;;22.46;51.53;100639.41;4926421;29;20511;-67
2023/07/19 04:12:49;;;;;;;3.90;3.33;;;;;;;23.11;49.16;100657.34;4917636;29;20985;-67
2023/07/19 04:15:19;;;;;;;5.40;3.70;;;;;;;23.11;46.32;100653.75;4916776;29;20833;-67
2023/07/19 04:17:48;;;;;;;3.47;3.10;;;;;;;23.47;46.30;100660.59;4915312;29;20960;-66
2023/07/19 04:20:17;;;;;;;5.77;4.00;;;;;;;22.80;49.12;100656.00;4918707;29;21000;-67
2023/07/19 04:22:48;;;;;;;6.30;3.17;;;;;;;22.15;49.18;100660.00;4916571;29;20798;-66
2023/07/19 04:25:17;;;;;;;6.47;3.93;;;;;;;21.72;50.16;100656.03;4920257;29;20451;-66
2023/07/19 04:27:46;;;;;;;4.00;3.07;;;;;;;21.20;51.10;100654.56;4915283;29;20447;-67
2023/07/19 04:30:16;;;;;;;6.60;3.90;;;;;;;20.89;52.35;100653.72;4903807;29;20447;-67
2023/07/19 04:32:45;;;;;;;5.13;3.47;;;;;;;20.76;52.51;100652.38;4958325;23;20483;-82
2023/07/19 04:35:14;;;;;;;4.97;2.97;;;;;;;20.76;53.07;100651.53;4981682;28;20443;-83
2023/07/19 04:37:44;;;;;;;5.00;3.00;;;;;;;20.78;52.76;100652.06;4982942;28;20439;-83
2023/07/19 04:40:15;;;;;;;4.87;3.43;;;;;;;20.81;51.99;100641.38;4979193;28;20414;-81
2023/07/19 04:42:44;;;;;;;5.23;3.10;;;;;;;20.60;52.66;100638.88;4961044;29;20430;-84
2023/07/19 04:45:14;;;;;;;4.50;3.40;;;;;;;20.73;52.45;100635.56;4962904;29;20414;-83
2023/07/19 04:47:44;;;;;;;4.03;3.10;;;;;;;20.97;52.35;100633.91;4946983;29;20533;-82
2023/07/19 04:50:13;;;;;;;5.13;2.80;;;;;;;21.10;52.42;100638.03;4947340;29;20425;-82
2023/07/19 04:52:44;;;;;;;5.13;3.00;;;;;;;21.02;51.50;100641.31;4964065;29;20442;-83
2023/07/19 04:55:15;;;;;;;3.60;2.80;;;;;;;20.84;52.60;100639.97;4944799;29;20525;-81
2023/07/19 04:57:44;;;;;;;10.03;3.03;;;;;;;21.02;52.19;100636.66;4964334;28;20446;-82
2023/07/19 05:00:14;;;;;;;3.80;3.03;;;;;;;21.07;52.14;100631.13;4965192;29;20453;-83
2023/07/19 05:02:47;;;;;;;3.70;2.90;;;;;;;21.16;49.57;100637.75;4966562;29;20947;-82
2023/07/19 05:06:12;;;;;;;4.80;2.77;;;;;;;21.00;50.56;100627.03;4958140;29;20434;-83
2023/07/19 05:13:03;;;;;;;4.60;3.00;;;;;;;20.92;50.43;100630.34;4980936;28;20382;-82
2023/07/19 05:15:36;;;;;;;4.10;3.00;;;;;;;20.84;49.99;100639.97;4982617;28;20406;-82
2023/07/19 05:18:09;;;;;;;8.50;3.10;;;;;;;20.85;50.63;100640.81;4983035;28;20725;-82
2023/07/19 05:20:39;;;;;;;3.30;2.97;;;;;;;21.06;49.91;100643.25;4980689;28;20421;-82
2023/07/19 05:23:08;;;;;;;3.80;2.90;;;;;;;21.13;48.95;100646.59;4980832;28;20508;-83
2023/07/19 05:25:37;;;;;;;5.70;3.87;;;;;;;20.95;48.91;100651.81;4988630;28;20510;-83
2023/07/19 05:28:08;;;;;;;8.00;3.00;;;;;;;21.04;50.07;100648.22;4989199;28;20481;-83
2023/07/19 05:30:37;;;;;;;3.77;2.83;;;;;;;20.92;50.13;100647.66;4985326;28;20427;-81
2023/07/19 05:33:07;;;;;;;12.50;2.60;;;;;;;20.88;49.59;100640.25;4974421;28;20874;-81
2023/07/19 05:39:22;;;;;;;6.17;2.43;;;;;;;21.10;48.58;100644.38;4961949;29;20399;-82
2023/07/19 05:41:51;;;;;;;4.10;2.53;;;;;;;21.05;49.23;100647.13;4968214;28;20438;-81
2023/07/19 05:44:21;;;;;;;3.77;2.37;;;;;;;21.18;48.28;100643.81;4967015;28;20447;-82
2023/07/19 05:46:51;;;;;;;5.00;3.00;;;;;;;21.01;49.02;100646.00;4969443;28;20434;-82
2023/07/19 05:49:20;;;;;;;7.70;2.80;;;;;;;20.90;49.06;100649.06;4944639;29;20443;-83
2023/07/19 05:51:50;;;;;;;3.77;2.43;;;;;;;21.05;48.89;100652.63;4972654;28;20469;-81
2023/07/19 05:54:19;;;;;;;4.90;2.80;;;;;;;21.06;48.32;100643.25;4988562;28;20485;-82
2023/07/19 05:56:48;;;;;;;4.67;3.33;;;;;;;21.21;48.53;100647.94;4966669;28;20443;-82
2023/07/19 05:59:18;;;;;;;5.10;2.83;;;;;;;21.46;48.51;100642.34;4961153;28;20461;-84
2023/07/19 06:01:48;;;;;;;4.00;2.80;;;;;;;21.63;48.03;100642.03;4962054;29;20807;-84
2023/07/19 06:04:18;;;;;;;7.37;3.73;;;;;;;21.92;47.27;100637.50;4969810;28;20441;-83
2023/07/19 06:06:48;;;;;;;10.90;2.60;;;;;;;22.14;46.50;100642.63;4974334;28;20433;-80
2023/07/19 06:09:17;;;;;;;3.90;2.60;;;;;;;22.12;46.78;100639.34;4965668;29;20818;-81
2023/07/19 06:11:47;;;;;;;5.33;2.73;;;;;;;22.20;46.93;100635.16;4965657;29;20474;-82
2023/07/19 06:14:17;;;;;;;3.30;2.33;;;;;;;22.35;46.41;100635.88;4964409;29;20470;-83
2023/07/19 06:16:48;;;;;;;5.23;3.00;;;;;;;22.36;45.75;100636.72;4963830;29;20442;-82
2023/07/19 06:19:19;;;;;;;8.53;3.00;;;;;;;22.75;45.24;100647.75;4965954;29;20406;-81
2023/07/19 06:22:00;;;;;;;4.27;2.60;;;;;;;22.82;45.40;100642.72;4964816;28;20472;-82
2023/07/19 06:24:31;;;;;;;7.90;3.30;;;;;;;22.88;44.83;100645.16;4945456;29;20839;-82
2023/07/19 06:27:00;;;;;;;4.80;2.50;;;;;;;22.57;45.18;100651.97;4968540;28;20458;-81
2023/07/19 06:29:29;;;;;;;11.53;3.43;;;;;;;22.54;44.85;100647.06;4962270;29;20407;-83
2023/07/19 06:32:00;;;;;;;7.70;2.60;;;;;;;22.18;45.31;100632.69;4961664;28;20945;-83
2023/07/19 06:34:29;;;;;;;5.60;3.33;;;;;;;22.20;46.49;100635.16;4962002;28;20399;-82
2023/07/19 06:36:58;;;;;;;4.80;2.83;;;;;;;22.20;46.55;100635.16;4961736;28;20931;-82
2023/07/19 06:39:28;;;;;;;5.97;3.07;;;;;;;22.30;46.55;100637.84;4968837;28;20418;-80
2023/07/19 06:41:57;;;;;;;4.83;3.37;;;;;;;22.23;46.58;100629.06;4965006;28;20538;-82
2023/07/19 06:44:26;;;;;;;9.33;3.70;;;;;;;22.44;46.22;100630.59;4959926;28;20439;-82
2023/07/19 06:46:55;;;;;;;5.27;3.63;;;;;;;22.75;44.95;100629.25;4975759;28;20450;-79
2023/07/19 06:49:26;;;;;;;11.43;3.10;;;;;;;23.12;44.82;100630.56;4973225;29;20458;-81
2023/07/19 06:51:55;;;;;;;10.60;4.00;;;;;;;23.56;44.11;100620.16;4971568;29;20483;-83
2023/07/19 06:54:25;;;;;;;6.40;2.63;;;;;;;23.96;42.87;100616.06;4979364;28;20419;-82
2023/07/19 06:56:54;;;;;;;5.90;2.93;;;;;;;24.26;42.70;100620.31;4973339;28;20494;-81
2023/07/19 06:59:23;;;;;;;5.53;2.50;;;;;;;24.67;41.76;100618.56;4966988;29;20947;-83
2023/07/19 07:01:52;;;;;;;9.00;3.80;;;;;;;24.91;40.36;100607.38;4964030;29;20475;-82
2023/07/19 07:04:23;;;;;;;7.17;3.50;;;;;;;25.24;39.87;100604.53;4966355;28;20410;-83
2023/07/19 07:06:54;;;;;;;5.20;3.23;;;;;;;25.35;40.25;100606.00;4971447;28;20898;-83
2023/07/19 07:09:23;;;;;;;4.30;2.57;;;;;;;25.16;39.37;100611.63;4968116;28;20418;-83
2023/07/19 07:11:52;;;;;;;7.00;2.87;;;;;;;25.12;39.41;100607.84;4948635;29;20444;-81
2023/07/19 07:14:22;;;;;;;7.70;3.10;;;;;;;25.14;39.45;100607.50;4966675;28;20439;-82
2023/07/19 07:16:51;;;;;;;6.10;3.80;;;;;;;25.03;39.81;100613.22;4967306;28;20438;-82
2023/07/19 07:19:20;;;;;;;6.57;2.60;;;;;;;24.83;40.35;100610.00;4977274;28;20416;-82
2023/07/19 07:21:49;;;;;;;5.50;2.73;;;;;;;24.77;40.41;100605.69;4972742;28;20472;-80
2023/07/19 07:24:20;;;;;;;5.00;3.23;;;;;;;24.91;40.11;100612.91;4966158;28;20417;-83
2023/07/19 07:26:49;;;;;;;3.67;2.70;;;;;;;24.54;39.87;100608.28;4964989;28;20482;-80
2023/07/19 07:29:18;;;;;;;5.80;2.90;;;;;;;24.77;39.78;100600.13;4976439;28;20772;-80
2023/07/19 07:31:48;;;;;;;3.90;2.73;;;;;;;25.04;39.54;100603.81;4970880;29;20447;-83
2023/07/19 07:34:17;;;;;;;3.23;2.70;;;;;;;25.14;39.33;100597.25;4978153;28;20450;-82
2023/07/19 07:36:46;;;;;;;4.60;3.37;;;;;;;25.51;38.25;100594.28;4972401;28;20466;-83
2023/07/19 07:39:16;;;;;;;8.00;3.63;;;;;;;25.65;38.81;100588.78;4970238;28;20931;-82
2023/07/19 07:41:49;;;;;;;8.00;3.43;;;;;;;25.88;37.89;100592.44;4986822;28;20443;-81
2023/07/19 07:44:18;;;;;;;3.30;2.97;;;;;;;26.10;37.47;100588.88;4990455;28;20396;-82
2023/07/19 07:46:48;;;;;;;7.53;3.10;;;;;;;26.45;36.66;100585.28;4974408;28;20535;-82
2023/07/19 07:49:17;;;;;;;6.97;3.50;;;;;;;26.61;36.24;100577.41;4980276;28;20925;-84
2023/07/19 07:51:47;;;;;;;8.97;3.80;;;;;;;26.78;37.24;100572.75;4968864;28;20473;-83
2023/07/19 07:54:16;;;;;;;3.87;3.00;;;;;;;26.75;36.15;100573.41;4946251;29;20439;-81
2023/07/19 07:56:47;;;;;;;9.77;3.40;;;;;;;26.77;35.80;100570.31;4964434;28;20474;-81
2023/07/19 07:59:17;;;;;;;6.50;3.40;;;;;;;26.39;36.82;100565.16;4966131;28;20418;-82
2023/07/19 08:01:47;;;;;;;5.20;3.60;;;;;;;25.69;37.95;100567.63;4971806;29;20466;-81
2023/07/19 08:04:16;;;;;;;11.63;3.80;;;;;;;25.33;38.78;100558.38;4967981;29;20463;-81
2023/07/19 08:06:45;;;;;;;4.20;3.40;;;;;;;25.27;38.46;100560.44;4975146;28;20494;-83
2023/07/19 08:09:15;;;;;;;9.80;2.63;;;;;;;25.45;39.62;100562.31;4967490;28;20541;-82
2023/07/19 08:11:44;;;;;;;3.60;2.93;;;;;;;26.00;37.66;100556.66;4978616;28;20451;-83
2023/07/19 08:14:15;;;;;;;4.60;3.00;;;;;;;25.83;38.72;100562.06;4990667;28;20441;-81
2023/07/19 08:16:44;;;;;;;4.53;2.87;;;;;;;25.99;38.20;100563.34;4990350;28;20475;-83
2023/07/19 08:19:14;;;;;;;6.70;2.80;;;;;;;25.95;38.47;100559.53;4985828;28;20425;-82
2023/07/19 08:21:43;;;;;;;7.30;3.83;;;;;;;26.21;38.77;100563.41;4999237;28;20461;-82
2023/07/19 08:24:15;;;;;;;6.90;3.60;;;;;;;26.31;37.43;100563.16;4982632;28;20463;-83
2023/07/19 08:26:44;;;;;;;4.53;3.60;;;;;;;26.07;37.71;100573.69;4982862;28;20645;-83
2023/07/19 08:29:15;;;;;;;3.70;2.30;;;;;;;25.83;37.74;100573.16;4975680;28;20427;-84
2023/07/19 08:31:51;;;;;;;5.30;3.30;;;;;;;26.01;37.45;100569.41;4970092;28;21100;-83
2023/07/19 08:34:20;;;;;;;3.93;2.90;;;;;;;26.30;36.58;100566.22;4977665;28;20946;-83
2023/07/19 08:36:50;;;;;;;12.80;4.17;;;;;;;26.30;37.17;100564.28;4964909;29;20439;-83
2023/07/19 08:39:21;;;;;;;12.03;3.90;;;;;;;26.57;36.93;100562.53;4965858;29;20455;-83
2023/07/19 08:41:51;;;;;;;6.73;3.53;;;;;;;26.67;37.34;100557.53;4952568;28;20451;-84
2023/07/19 08:44:26;;;;;;;4.97;3.77;;;;;;;26.56;37.44;100555.31;4975650;28;20479;-82
2023/07/19 08:47:32;;;;;;;6.20;4.23;;;;;;;26.78;36.45;100555.28;4961917;28;20501;-83
2023/07/19 08:50:18;;;;;;;6.03;3.83;;;;;;;26.74;36.24;100559.84;4950278;29;20486;-83
2023/07/19 08:52:49;;;;;;;6.90;3.43;;;;;;;26.74;36.67;100559.84;4969647;28;20434;-80
2023/07/19 08:55:24;;;;;;;4.80;3.60;;;;;;;26.75;36.93;100559.53;4950687;29;20459;-82
2023/07/19 08:57:54;;;;;;;7.87;4.43;;;;;;;26.76;37.19;100557.56;4971889;28;20492;-82
2023/07/19 09:00:40;;;;;;;9.57;4.70;;;;;;;27.25;36.81;100557.31;4983317;28;20491;-82
2023/07/19 09:03:20;;;;;;;6.67;3.40;;;;;;;26.78;37.13;100558.06;4971719;28;20446;-81
2023/07/19 09:05:54;;;;;;;4.83;3.73;;;;;;;27.11;36.51;100553.06;4965185;28;20498;-82
2023/07/19 09:08:37;;;;;;;9.57;2.70;;;;;;;27.15;35.99;100549.31;4964523;29;20430;-82
2023/07/19 09:11:09;;;;;;;5.10;3.27;;;;;;;26.49;36.50;100547.44;4961258;28;20436;-83
2023/07/19 09:13:39;;;;;;;5.43;3.70;;;;;;;26.29;36.95;100547.94;4964083;28;20920;-81
2023/07/19 09:16:10;;;;;;;6.20;3.27;;;;;;;26.39;37.33;100548.53;4963510;28;20426;-82
2023/07/19 09:18:44;;;;;;;5.03;3.93;;;;;;;26.64;35.84;100544.28;4958581;28;20451;-82
2023/07/19 09:21:16;;;;;;;6.23;4.00;;;;;;;26.69;36.99;100546.09;4980169;28;20480;-81
2023/07/19 09:23:49;;;;;;;10.90;3.53;;;;;;;27.09;37.02;100550.59;4979890;28;21007;-82
2023/07/19 09:26:18;;;;;;;4.53;3.23;;;;;;;26.97;35.85;100546.75;4963335;28;20554;-82
2023/07/19 09:28:48;;;;;;;6.53;2.80;;;;;;;26.98;35.10;100549.22;4980256;28;20504;-81
2023/07/19 09:31:18;;;;;;;9.53;3.37;;;;;;;26.52;36.66;100541.28;4993720;28;20430;-82
2023/07/19 09:33:56;;;;;;;4.23;3.07;;;;;;;26.64;36.73;100541.50;4997638;28;20469;-81
2023/07/19 09:36:36;;;;;;;4.57;2.93;;;;;;;26.73;36.26;100536.00;5129307;23;20963;-83
2023/07/19 09:39:25;;;;;;;4.07;3.33;;;;;;;26.36;36.08;100526.97;4955524;29;20400;-81
2023/07/19 09:41:55;;;;;;;4.00;2.80;;;;;;;26.41;36.33;100533.53;4956650;29;20452;-83
2023/07/19 09:44:25;;;;;;;7.53;3.10;;;;;;;26.72;36.14;100523.28;4958257;29;20460;-83
2023/07/19 09:47:08;;;;;;;6.80;2.83;;;;;;;27.05;35.24;100527.38;4972636;28;20462;-83
2023/07/19 09:50:06;;;;;;;8.60;4.50;;;;;;;27.05;35.02;100524.59;4963861;29;20517;-83
2023/07/19 09:52:38;;;;;;;4.00;2.97;;;;;;;26.90;34.88;100511.13;4956899;28;20523;-85
2023/07/19 09:55:09;;;;;;;4.30;3.20;;;;;;;26.94;34.93;100517.69;4952892;29;20440;-83
2023/07/19 09:57:44;;;;;;;4.20;2.40;;;;;;;27.06;34.58;100515.09;4952988;29;20459;-82
2023/07/19 10:00:14;;;;;;;5.33;3.27;;;;;;;26.86;34.32;100523.19;4962631;29;20433;-82
2023/07/19 10:02:46;;;;;;;4.97;2.90;;;;;;;26.96;35.06;100517.38;4955454;29;20448;-83
2023/07/19 10:05:16;;;;;;;6.03;3.23;;;;;;;27.37;34.80;100512.25;4953982;29;20535;-84
2023/07/19 10:07:50;;;;;;;2.80;2.37;;;;;;;27.75;33.40;100506.94;4935918;29;20472;-83
2023/07/19 10:10:24;;;;;;;4.40;2.67;;;;;;;27.83;33.46;100503.38;4957993;29;20438;-83
2023/07/19 10:12:58;;;;;;;6.17;2.90;;;;;;;27.95;33.88;100500.75;4956468;29;20455;-81
2023/07/19 10:15:33;;;;;;;6.80;3.57;;;;;;;27.64;34.47;100503.66;4954801;29;20435;-84
2023/07/19 10:18:14;;;;;;;9.50;3.60;;;;;;;27.08;35.62;100507.28;4947912;29;20564;-83
2023/07/19 10:20:44;;;;;;;5.77;3.07;;;;;;;26.81;35.10;100510.25;4950954;29;20440;-82
2023/07/19 10:23:30;;;;;;;4.67;3.07;;;;;;;26.57;35.55;100498.69;4957256;29;20425;-83
2023/07/19 10:26:07;;;;;;;7.90;3.67;;;;;;;27.30;35.51;100503.59;4951611;29;20509;-83
2023/07/19 10:28:38;;;;;;;6.53;4.20;;;;;;;27.37;35.22;100495.59;4963530;29;20475;-82
2023/07/19 10:31:32;;;;;;;6.10;3.60;;;;;;;27.28;34.96;100502.28;4933794;29;20455;-82
2023/07/19 10:34:07;;;;;;;4.03;2.47;;;;;;;27.04;34.90;100492.41;4951763;29;20795;-84
2023/07/19 10:36:47;;;;;;;6.17;2.70;;;;;;;26.96;34.92;100493.19;4939013;29;20477;-84
2023/07/19 10:39:26;;;;;;;8.97;3.33;;;;;;;27.25;35.50;100489.88;4944794;29;20462;-83
2023/07/19 10:42:23;;;;;;;6.03;3.93;;;;;;;27.34;35.75;100496.25;4938518;29;20448;-83
2023/07/19 10:48:03;;;;;;;4.70;2.77;;;;;;;27.88;34.36;100483.75;4962434;28;20487;-82
2023/07/19 10:50:39;;;;;;;7.70;2.80;;;;;;;27.58;33.81;100484.72;4955948;29;20481;-82
2023/07/19 10:53:15;;;;;;;5.73;2.77;;;;;;;27.51;34.22;100476.84;4953854;29;20464;-85
2023/07/19 10:58:39;;;;;;;4.00;3.53;;;;;;;27.00;35.52;100474.75;4951381;29;20511;-83
2023/07/19 11:01:12;;;;;;;3.90;2.80;;;;;;;27.28;35.15;100475.31;4945426;29;20446;-84
2023/07/19 11:03:52;;;;;;;5.40;2.87;;;;;;;28.06;34.85;100471.47;4957544;28;20511;-86
2023/07/19 11:06:31;;;;;;;3.77;3.37;;;;;;;27.62;33.99;100471.78;4975380;28;20466;-80
2023/07/19 11:09:08;;;;;;;3.43;2.43;;;;;;;27.69;33.93;100472.16;4967095;28;20451;-83
2023/07/19 11:11:40;;;;;;;4.50;2.60;;;;;;;27.57;34.63;100464.44;4970867;28;20448;-84
2023/07/19 11:14:27;;;;;;;4.20;2.70;;;;;;;27.97;34.18;100469.84;4934688;29;20520;-83
2023/07/19 11:16:57;;;;;;;6.70;3.80;;;;;;;27.71;34.43;100469.84;4947507;29;20971;-82
2023/07/19 11:19:39;;;;;;;10.80;3.30;;;;;;;26.62;35.98;100468.88;4951826;29;20808;-82
2023/07/19 11:22:26;;;;;;;6.53;2.63;;;;;;;26.25;36.48;100472.88;4955670;29;20435;-83
2023/07/19 11:24:59;;;;;;;4.80;3.10;;;;;;;26.35;36.81;100480.94;4944517;29;20585;-83
2023/07/19 11:27:36;;;;;;;5.20;3.07;;;;;;;26.22;37.16;100476.28;4955620;29;20484;-83
2023/07/19 11:30:17;;;;;;;6.17;3.60;;;;;;;25.75;37.18;100474.94;4939162;29;20453;-83
2023/07/19 11:33:02;;;;;;;7.20;2.80;;;;;;;25.79;37.35;100475.13;4953112;28;20452;-83
2023/07/19 11:35:35;;;;;;;4.20;2.70;;;;;;;25.72;37.21;100477.50;4960350;28;20448;-83
2023/07/19 11:38:10;;;;;;;6.07;3.30;;;;;;;25.67;37.43;100469.31;4961950;28;20451;-84
2023/07/19 11:40:46;;;;;;;7.10;3.90;;;;;;;25.51;37.55;100469.63;4958686;28;20451;-83
2023/07/19 11:43:18;;;;;;;5.20;2.93;;;;;;;25.19;37.68;100464.25;4959900;28;20532;-83
2023/07/19 11:46:42;;;;;;;6.33;3.43;;;;;;;25.21;38.19;100473.09;4945421;29;20536;-84
2023/07/19 11:49:12;;;;;;;3.33;2.67;;;;;;;25.35;38.19;100465.56;4960531;28;20448;-81
2023/07/19 11:51:44;;;;;;;5.07;3.00;;;;;;;25.39;37.96;100461.03;4948592;29;20492;-84
2023/07/19 11:54:21;;;;;;;4.73;3.40;;;;;;;25.86;37.55;100453.31;4975894;29;20433;-84
2023/07/19 11:57:11;;;;;;;4.93;2.80;;;;;;;26.14;36.89;100462.34;4963928;28;20504;-83
2023/07/19 11:59:58;;;;;;;4.57;3.20;;;;;;;26.11;36.76;100461.00;4945203;29;20403;-83
2023/07/19 12:02:37;;;;;;;3.23;2.50;;;;;;;26.72;36.13;100454.69;4952934;29;20830;-82
2023/07/19 12:06:01;;;;;;;4.30;3.00;;;;;;;26.27;36.92;100458.69;4953775;28;20431;-84